Time;durP1;ratioP1;P1;durP2;ratioP2;P2;SDS_P1;SDS_P2;PMS_P1;PMS_P2;Temp;Humidity;BMP_temperature;BMP_pressure;BME280_temperature;BME280_humidity;BME280_pressure;Samples;Min_cycle;Max_cycle;Signal;HPM_P1;HPM_P2
2023/01/29 00:01:45;;;;;;;14.17;5.83;;;-0.10;99.90;;;;;;5049710;28;20209;-55
2023/01/29 00:04:11;;;;;;;9.77;5.80;;;-0.10;99.90;;;;;;5050026;28;20182;-54
2023/01/29 00:06:38;;;;;;;9.03;5.73;;;-0.10;99.90;;;;;;5042873;28;20201;-55
2023/01/29 00:09:03;;;;;;;10.80;5.43;;;-0.10;99.90;;;;;;5051505;28;20173;-55
2023/01/29 00:11:30;;;;;;;8.33;4.87;;;-0.10;99.90;;;;;;5062931;28;20443;-56
2023/01/29 00:13:56;;;;;;;7.93;5.00;;;-0.10;99.90;;;;;;5071721;28;20212;-57
2023/01/29 00:16:22;;;;;;;9.57;5.80;;;-0.20;99.90;;;;;;5055608;28;20439;-55
2023/01/29 00:18:47;;;;;;;9.80;5.27;;;-0.20;99.90;;;;;;5046753;28;20554;-55
2023/01/29 00:21:16;;;;;;;8.20;5.03;;;-0.20;99.90;;;;;;5046673;28;20194;-56
2023/01/29 00:23:42;;;;;;;10.13;5.63;;;-0.20;99.90;;;;;;5049273;28;20235;-55
2023/01/29 00:26:08;;;;;;;8.40;5.10;;;-0.20;99.90;;;;;;5049172;28;20468;-54
2023/01/29 00:28:34;;;;;;;6.83;4.57;;;-0.20;99.90;;;;;;5047241;28;20561;-55
2023/01/29 00:31:14;;;;;;;7.17;4.17;;;-0.20;99.90;;;;;;5048246;28;20462;-55
2023/01/29 00:33:40;;;;;;;6.03;3.80;;;-0.20;99.90;;;;;;5047911;28;20285;-55
2023/01/29 00:36:08;;;;;;;7.50;4.87;;;-0.20;99.90;;;;;;5052301;28;20447;-57
2023/01/29 00:38:35;;;;;;;6.07;4.20;;;-0.20;99.90;;;;;;5065136;28;20213;-56
2023/01/29 00:46:42;;;;;;;6.33;3.80;;;-0.30;99.90;;;;;;5045872;28;20435;-55
2023/01/29 00:49:08;;;;;;;6.90;3.97;;;-0.30;99.90;;;;;;5047552;28;20803;-57
2023/01/29 00:51:36;;;;;;;3.80;3.30;;;-0.30;99.90;;;;;;5041386;28;20453;-55
2023/01/29 00:54:05;;;;;;;4.23;3.33;;;-0.30;99.90;;;;;;5049791;28;20436;-54
2023/01/29 00:56:32;;;;;;;5.07;3.30;;;-0.30;99.90;;;;;;5051301;28;20416;-56
2023/01/29 00:58:58;;;;;;;5.93;3.77;;;-0.30;99.90;;;;;;5057056;28;20472;-55
2023/01/29 01:04:09;;;;;;;5.03;3.40;;;-0.30;99.90;;;;;;5039424;28;20563;-55
2023/01/29 01:06:39;;;;;;;4.67;3.13;;;-0.40;99.90;;;;;;5044674;28;20511;-55
2023/01/29 01:11:50;;;;;;;3.60;3.20;;;-0.40;99.90;;;;;;5049612;28;20439;-55
2023/01/29 01:14:19;;;;;;;5.20;3.67;;;-0.30;99.90;;;;;;5032469;28;20428;-55
2023/01/29 01:16:46;;;;;;;6.47;4.10;;;-0.30;99.90;;;;;;5050403;28;20186;-57
2023/01/29 01:19:13;;;;;;;4.20;3.40;;;-0.40;99.90;;;;;;5042929;28;20459;-56
2023/01/29 01:21:44;;;;;;;4.30;2.90;;;-0.30;99.90;;;;;;5053216;28;20455;-56
2023/01/29 01:24:10;;;;;;;6.17;3.93;;;-0.30;99.90;;;;;;5028035;28;20797;-55
2023/01/29 01:26:35;;;;;;;5.27;3.53;;;-0.30;99.90;;;;;;5037601;28;20512;-54
2023/01/29 01:29:01;;;;;;;6.47;3.90;;;-0.40;99.90;;;;;;5046099;28;20581;-56
2023/01/29 01:31:27;;;;;;;4.13;3.53;;;-0.40;99.90;;;;;;5049406;28;20208;-55
2023/01/29 01:33:54;;;;;;;6.40;3.70;;;-0.40;99.90;;;;;;5067000;28;20250;-56
2023/01/29 01:36:20;;;;;;;8.97;4.77;;;-0.40;99.90;;;;;;5052474;28;20194;-56
2023/01/29 01:38:46;;;;;;;4.60;3.63;;;-0.40;99.90;;;;;;5062109;28;20608;-56
2023/01/29 01:41:14;;;;;;;5.77;4.03;;;-0.40;99.90;;;;;;5051437;28;20465;-57
2023/01/29 01:43:47;;;;;;;5.00;4.10;;;-0.40;99.90;;;;;;5066320;28;20199;-56
2023/01/29 01:46:13;;;;;;;7.37;4.30;;;-0.40;99.90;;;;;;5054635;28;20482;-56
2023/01/29 01:48:39;;;;;;;7.80;4.53;;;-0.30;99.90;;;;;;5035507;28;20437;-56
2023/01/29 01:51:05;;;;;;;5.83;4.30;;;-0.30;99.90;;;;;;5041607;28;20247;-56
2023/01/29 01:54:19;;;;;;;4.70;3.60;;;-0.30;99.90;;;;;;5043611;28;20827;-56
2023/01/29 01:56:49;;;;;;;5.30;3.80;;;-0.30;99.90;;;;;;5012907;28;20228;-57
2023/01/29 01:59:17;;;;;;;5.23;4.50;;;-0.30;99.90;;;;;;5040027;28;20554;-57
2023/01/29 02:01:48;;;;;;;6.80;4.97;;;-0.30;99.90;;;;;;5046600;28;20491;-57
2023/01/29 02:10:15;;;;;;;9.40;3.93;;;-0.30;99.90;;;;;;5068789;28;20469;-58
2023/01/29 02:12:44;;;;;;;7.17;4.07;;;-0.30;99.90;;;;;;5045304;28;20480;-55
2023/01/29 02:15:10;;;;;;;5.20;4.17;;;-0.30;99.90;;;;;;5045411;28;20499;-56
2023/01/29 02:17:36;;;;;;;6.90;4.50;;;-0.30;99.90;;;;;;5046633;28;20474;-56
2023/01/29 02:20:02;;;;;;;6.00;4.30;;;-0.40;99.90;;;;;;5039567;28;20489;-57
2023/01/29 02:22:52;;;;;;;7.03;4.50;;;-0.40;99.90;;;;;;5042836;28;20450;-57
2023/01/29 02:25:24;;;;;;;7.10;4.50;;;-0.40;99.90;;;;;;5031702;28;20193;-55
2023/01/29 02:28:12;;;;;;;7.10;4.23;;;-0.40;99.90;;;;;;5033864;28;20816;-57
2023/01/29 02:31:12;;;;;;;5.10;3.83;;;-0.40;99.90;;;;;;5066481;28;20497;-58
2023/01/29 02:33:40;;;;;;;5.87;4.50;;;-0.40;99.90;;;;;;5059225;28;20468;-57
2023/01/29 02:36:45;;;;;;;6.53;4.33;;;-0.40;99.90;;;;;;5050800;28;20508;-57
2023/01/29 02:39:24;;;;;;;6.10;3.80;;;-0.40;99.90;;;;;;5025724;28;20455;-57
2023/01/29 02:41:58;;;;;;;5.63;3.83;;;-0.40;99.90;;;;;;5050341;28;20466;-57
2023/01/29 02:44:37;;;;;;;5.57;3.90;;;-0.40;99.90;;;;;;5063303;28;20426;-58
2023/01/29 02:47:15;;;;;;;6.57;3.83;;;-0.40;99.90;;;;;;5045492;28;20846;-56
2023/01/29 02:50:05;;;;;;;4.20;3.63;;;-0.40;99.90;;;;;;5040249;28;20420;-59
2023/01/29 02:52:48;;;;;;;5.10;4.00;;;-0.40;99.90;;;;;;5041050;28;20421;-56
2023/01/29 02:55:23;;;;;;;7.03;4.03;;;-0.40;99.90;;;;;;5035850;28;20412;-57
2023/01/29 02:57:54;;;;;;;5.93;4.33;;;-0.30;99.90;;;;;;5067276;28;20456;-57
2023/01/29 03:00:23;;;;;;;5.90;4.37;;;-0.30;99.90;;;;;;5044122;28;20537;-56
2023/01/29 03:03:05;;;;;;;4.43;3.60;;;-0.30;99.90;;;;;;5061591;28;20447;-57
2023/01/29 03:05:34;;;;;;;4.53;3.63;;;-0.30;99.90;;;;;;5068432;28;20422;-58
2023/01/29 03:08:10;;;;;;;7.80;4.37;;;-0.30;99.90;;;;;;5051412;28;20454;-57
2023/01/29 03:10:42;;;;;;;4.97;3.77;;;-0.30;99.90;;;;;;5061153;28;20451;-57
2023/01/29 03:13:20;;;;;;;5.63;3.80;;;-0.30;99.90;;;;;;5044689;28;20427;-56
2023/01/29 03:15:53;;;;;;;5.03;3.23;;;-0.30;99.90;;;;;;5043658;28;20501;-61
2023/01/29 03:18:26;;;;;;;5.63;3.63;;;-0.30;99.90;;;;;;5036197;28;20464;-56
2023/01/29 03:20:57;;;;;;;4.83;3.40;;;-0.30;99.90;;;;;;5051374;28;20427;-57
2023/01/29 03:32:07;;;;;;;4.03;2.63;;;-0.30;99.90;;;;;;5043967;28;21056;-56
2023/01/29 03:34:42;;;;;;;4.90;3.27;;;-0.30;99.90;;;;;;5046128;28;20435;-57
2023/01/29 03:37:35;;;;;;;4.80;3.63;;;-0.30;99.90;;;;;;5049339;28;20439;-54
2023/01/29 03:40:05;;;;;;;5.73;3.60;;;-0.30;99.90;;;;;;5066092;28;20428;-57
2023/01/29 03:42:52;;;;;;;6.70;3.63;;;-0.20;99.90;;;;;;5069673;28;20443;-58
2023/01/29 03:45:41;;;;;;;4.47;3.40;;;-0.30;99.90;;;;;;5058420;28;21007;-56
2023/01/29 03:48:21;;;;;;;4.27;3.70;;;-0.30;99.90;;;;;;5059662;28;20493;-57
2023/01/29 03:51:19;;;;;;;4.93;3.30;;;-0.30;99.90;;;;;;5069756;28;20438;-57
2023/01/29 03:53:52;;;;;;;4.90;3.20;;;-0.30;99.90;;;;;;5068028;28;20523;-58
2023/01/29 03:56:21;;;;;;;5.00;3.70;;;-0.30;99.90;;;;;;5069452;28;20421;-66
2023/01/29 03:58:56;;;;;;;3.73;3.00;;;-0.20;99.90;;;;;;5055729;28;20470;-56
2023/01/29 04:01:42;;;;;;;6.80;3.13;;;-0.30;99.90;;;;;;5047771;28;20466;-56
2023/01/29 04:04:23;;;;;;;5.93;3.97;;;-0.30;99.90;;;;;;5044661;28;20432;-56
2023/01/29 04:06:51;;;;;;;7.20;4.00;;;-0.30;99.90;;;;;;5045817;28;20920;-57
2023/01/29 04:09:31;;;;;;;6.03;3.30;;;-0.30;99.90;;;;;;5048536;28;20523;-56
2023/01/29 04:12:08;;;;;;;4.77;3.40;;;-0.30;99.90;;;;;;5038011;28;20462;-54
2023/01/29 04:14:34;;;;;;;4.23;3.60;;;-0.30;99.90;;;;;;5041515;28;20662;-55
2023/01/29 04:17:04;;;;;;;4.50;3.50;;;-0.30;99.90;;;;;;5048312;28;20442;-57
2023/01/29 04:19:30;;;;;;;5.07;3.50;;;-0.30;99.90;;;;;;5044001;28;20547;-57
2023/01/29 04:22:06;;;;;;;4.83;3.60;;;-0.30;99.90;;;;;;5040071;28;20559;-55
2023/01/29 04:24:33;;;;;;;4.87;3.90;;;-0.30;99.90;;;;;;5046510;28;20645;-56
2023/01/29 04:27:08;;;;;;;4.23;3.60;;;-0.30;99.90;;;;;;5047174;28;20471;-58
2023/01/29 04:29:37;;;;;;;7.57;3.90;;;-0.30;99.90;;;;;;5046225;28;20474;-55
2023/01/29 04:32:19;;;;;;;7.30;4.10;;;-0.30;99.90;;;;;;5036036;28;20874;-59
2023/01/29 04:35:04;;;;;;;4.83;4.07;;;-0.30;99.90;;;;;;5043897;28;20428;-58
2023/01/29 04:37:41;;;;;;;7.03;4.57;;;-0.30;99.90;;;;;;5031225;28;20447;-56
2023/01/29 04:40:25;;;;;;;6.13;4.10;;;-0.30;99.90;;;;;;5046464;28;20448;-55
2023/01/29 04:43:06;;;;;;;6.23;4.20;;;-0.30;99.90;;;;;;5046564;28;20471;-58
2023/01/29 04:46:10;;;;;;;6.17;3.83;;;-0.30;99.90;;;;;;5060555;28;20449;-57
2023/01/29 04:49:04;;;;;;;5.80;4.27;;;-0.30;99.90;;;;;;5060456;28;20436;-57
2023/01/29 04:51:48;;;;;;;8.40;4.50;;;-0.30;99.90;;;;;;5048922;28;20553;-57
2023/01/29 04:54:49;;;;;;;9.20;4.70;;;-0.40;99.90;;;;;;5037736;28;20424;-57
2023/01/29 04:57:22;;;;;;;6.00;4.20;;;-0.40;99.90;;;;;;4932847;28;20445;-56
2023/01/29 04:59:53;;;;;;;7.43;4.27;;;-0.40;99.90;;;;;;5029926;28;20443;-56
2023/01/29 05:02:21;;;;;;;5.77;4.50;;;-0.40;99.90;;;;;;5042372;28;20463;-56
2023/01/29 05:04:48;;;;;;;8.70;5.17;;;-0.40;99.90;;;;;;5044024;28;20435;-55
2023/01/29 05:07:17;;;;;;;6.80;4.70;;;-0.40;99.90;;;;;;5041019;28;20459;-57
2023/01/29 05:09:45;;;;;;;6.53;4.60;;;-0.40;99.90;;;;;;5040379;28;20439;-55
2023/01/29 05:12:13;;;;;;;8.13;5.00;;;-0.40;99.90;;;;;;5039871;28;20456;-55
2023/01/29 05:14:42;;;;;;;9.10;5.30;;;-0.40;99.90;;;;;;5047392;28;20467;-55
2023/01/29 05:17:19;;;;;;;7.30;4.63;;;-0.50;99.90;;;;;;5037682;28;20456;-55
2023/01/29 05:19:45;;;;;;;6.33;4.33;;;-0.50;99.90;;;;;;5046647;28;20424;-55
2023/01/29 05:22:15;;;;;;;7.87;4.80;;;-0.50;99.90;;;;;;5044314;28;20578;-56
2023/01/29 05:24:41;;;;;;;7.90;5.10;;;-0.50;99.90;;;;;;5046462;28;20428;-57
2023/01/29 05:30:02;;;;;;;6.60;4.70;;;-0.50;99.90;;;;;;5045916;28;20196;-56
2023/01/29 05:32:27;;;;;;;6.37;4.60;;;-0.40;99.90;;;;;;5035840;28;21003;-56
2023/01/29 05:34:53;;;;;;;7.77;4.93;;;-0.40;99.90;;;;;;5043684;28;20427;-57
2023/01/29 05:37:19;;;;;;;5.13;3.90;;;-0.50;99.90;;;;;;5043603;28;20168;-56
2023/01/29 05:39:44;;;;;;;6.80;4.50;;;-0.50;99.90;;;;;;5047759;28;20217;-56
2023/01/29 05:42:10;;;;;;;7.90;5.47;;;-0.50;99.90;;;;;;5046781;28;20197;-56
2023/01/29 05:44:35;;;;;;;6.00;4.37;;;-0.50;99.90;;;;;;5046505;28;20185;-56
2023/01/29 05:47:04;;;;;;;7.20;4.73;;;-0.50;99.90;;;;;;5053153;28;20174;-56
2023/01/29 05:49:29;;;;;;;7.20;5.03;;;-0.50;99.90;;;;;;5048441;28;20253;-57
2023/01/29 05:51:55;;;;;;;7.90;5.03;;;-0.50;99.90;;;;;;5047664;28;21034;-55
2023/01/29 05:54:21;;;;;;;5.80;4.50;;;-0.50;99.90;;;;;;5047514;28;20181;-56
2023/01/29 05:56:46;;;;;;;7.40;5.40;;;-0.50;99.90;;;;;;5051440;28;20439;-57
2023/01/29 05:59:12;;;;;;;9.30;5.00;;;-0.50;99.90;;;;;;5064554;28;20307;-56
2023/01/29 06:01:38;;;;;;;7.47;5.07;;;-0.50;99.90;;;;;;5055539;28;20202;-56
2023/01/29 06:04:03;;;;;;;9.20;4.83;;;-0.50;99.90;;;;;;5053619;28;20184;-57
2023/01/29 06:06:29;;;;;;;6.47;4.73;;;-0.50;99.90;;;;;;5059222;28;20208;-60
2023/01/29 06:08:55;;;;;;;7.67;5.23;;;-0.50;99.90;;;;;;5051947;28;20181;-55
2023/01/29 06:11:21;;;;;;;5.40;4.70;;;-0.50;99.90;;;;;;5064036;28;20768;-57
2023/01/29 06:13:47;;;;;;;6.67;5.13;;;-0.60;99.90;;;;;;5061312;28;20510;-54
2023/01/29 06:16:13;;;;;;;7.07;4.90;;;-0.60;99.90;;;;;;5044628;28;20255;-55
2023/01/29 06:18:40;;;;;;;7.90;5.10;;;-0.60;99.90;;;;;;5044905;28;20459;-56
2023/01/29 06:21:09;;;;;;;8.10;5.13;;;-0.60;99.90;;;;;;5043765;28;20483;-56
2023/01/29 06:23:34;;;;;;;8.57;5.67;;;-0.60;99.90;;;;;;5046064;28;20432;-54
2023/01/29 06:26:02;;;;;;;7.63;5.30;;;-0.60;99.90;;;;;;5041241;28;20427;-57
2023/01/29 06:28:28;;;;;;;5.67;4.70;;;-0.60;99.90;;;;;;5046805;28;20185;-56
2023/01/29 06:30:58;;;;;;;8.53;5.57;;;-0.60;99.90;;;;;;5047530;28;20912;-58
2023/01/29 06:33:25;;;;;;;9.90;5.50;;;-0.60;99.90;;;;;;5045379;28;20447;-56
2023/01/29 06:35:58;;;;;;;9.37;5.90;;;-0.60;99.90;;;;;;5041909;28;20425;-54
2023/01/29 06:38:24;;;;;;;7.27;5.43;;;-0.60;99.90;;;;;;5050579;28;20471;-56
2023/01/29 06:40:50;;;;;;;6.20;4.87;;;-0.60;99.90;;;;;;5046506;28;20556;-56
2023/01/29 06:43:16;;;;;;;8.37;5.90;;;-0.60;99.90;;;;;;5042814;28;20447;-57
2023/01/29 06:45:57;;;;;;;11.83;6.80;;;-0.60;99.90;;;;;;5046593;28;20432;-55
2023/01/29 06:48:23;;;;;;;16.23;8.17;;;-0.60;99.90;;;;;;5038272;28;20274;-54
2023/01/29 06:50:50;;;;;;;10.97;6.10;;;-0.60;99.90;;;;;;5043258;28;20809;-56
2023/01/29 06:53:17;;;;;;;13.37;7.80;;;-0.60;99.90;;;;;;5029671;28;20483;-55
2023/01/29 06:55:49;;;;;;;14.57;7.00;;;-0.60;99.90;;;;;;5049908;28;20427;-55
2023/01/29 06:58:15;;;;;;;8.20;5.90;;;-0.60;99.90;;;;;;5042376;28;20474;-58
2023/01/29 07:00:40;;;;;;;13.37;7.67;;;-0.60;99.90;;;;;;5049864;28;20423;-57
2023/01/29 07:03:08;;;;;;;20.20;9.20;;;-0.60;99.90;;;;;;5051069;28;20185;-55
2023/01/29 07:05:34;;;;;;;33.00;13.17;;;-0.50;99.90;;;;;;5042129;28;20258;-54
2023/01/29 07:08:00;;;;;;;9.90;5.83;;;-0.50;99.90;;;;;;5044439;28;20493;-54
2023/01/29 07:10:25;;;;;;;11.23;6.97;;;-0.50;99.90;;;;;;5038871;28;20268;-56
2023/01/29 07:12:51;;;;;;;10.47;6.27;;;-0.50;99.90;;;;;;5042856;28;20308;-57
2023/01/29 07:15:19;;;;;;;8.17;6.27;;;-0.50;99.90;;;;;;5031867;28;20257;-59
2023/01/29 07:17:59;;;;;;;9.07;6.20;;;-0.60;99.90;;;;;;5024451;28;20286;-55
2023/01/29 07:20:26;;;;;;;8.13;6.20;;;-0.60;99.90;;;;;;5038240;28;20569;-55
2023/01/29 07:22:52;;;;;;;13.70;7.30;;;-0.70;99.90;;;;;;5040915;28;20482;-57
2023/01/29 07:25:18;;;;;;;10.17;7.17;;;-0.70;99.90;;;;;;5040762;28;20427;-56
2023/01/29 07:27:43;;;;;;;9.20;6.43;;;-0.70;99.90;;;;;;5040147;28;20479;-55
2023/01/29 07:30:09;;;;;;;10.63;6.43;;;-0.70;99.90;;;;;;5042740;28;20215;-55
2023/01/29 07:32:35;;;;;;;9.17;6.13;;;-0.60;99.90;;;;;;5038826;28;20220;-56
2023/01/29 07:35:00;;;;;;;10.87;7.33;;;-0.60;99.90;;;;;;5037179;28;20474;-56
2023/01/29 07:37:26;;;;;;;11.43;7.07;;;-0.70;99.90;;;;;;5046755;28;20193;-55
2023/01/29 07:39:52;;;;;;;11.20;7.10;;;-0.60;99.90;;;;;;5039555;28;20243;-56
2023/01/29 07:42:17;;;;;;;11.87;7.53;;;-0.60;99.90;;;;;;5043513;28;20202;-56
2023/01/29 07:44:43;;;;;;;11.57;7.53;;;-0.60;99.90;;;;;;5040974;28;20173;-56
2023/01/29 07:47:08;;;;;;;10.67;7.10;;;-0.60;99.90;;;;;;5040637;28;20180;-56
2023/01/29 07:49:34;;;;;;;11.00;7.60;;;-0.60;99.90;;;;;;5042219;28;20268;-56
2023/01/29 07:51:59;;;;;;;10.60;6.97;;;-0.60;99.90;;;;;;5042300;28;20224;-54
2023/01/29 07:54:25;;;;;;;11.17;7.17;;;-0.60;99.90;;;;;;5041050;28;20192;-54
2023/01/29 07:56:51;;;;;;;8.10;6.70;;;-0.60;99.90;;;;;;5040794;28;20191;-56
2023/01/29 07:59:16;;;;;;;10.60;6.73;;;-0.60;99.90;;;;;;5049157;28;20747;-56
2023/01/29 08:01:42;;;;;;;11.87;7.33;;;-0.60;99.90;;;;;;5046389;28;20210;-55
2023/01/29 08:04:07;;;;;;;14.00;7.83;;;-0.60;99.90;;;;;;5045742;28;20536;-55
2023/01/29 08:06:33;;;;;;;11.90;7.57;;;-0.60;99.90;;;;;;5035374;28;20182;-57
2023/01/29 08:08:59;;;;;;;10.70;7.30;;;-0.60;99.90;;;;;;5039700;28;20247;-56
2023/01/29 08:11:24;;;;;;;11.53;7.23;;;-0.60;99.90;;;;;;5071602;28;20185;-57
2023/01/29 08:13:50;;;;;;;12.97;7.93;;;-0.60;99.90;;;;;;5072476;28;20275;-58
2023/01/29 08:16:16;;;;;;;18.97;8.93;;;-0.60;99.90;;;;;;5070798;28;20193;-56
2023/01/29 08:18:45;;;;;;;15.77;9.33;;;-0.60;99.90;;;;;;5065412;28;20538;-56
2023/01/29 08:21:10;;;;;;;14.00;9.00;;;-0.50;99.90;;;;;;5041371;28;20392;-56
2023/01/29 08:23:36;;;;;;;11.67;7.57;;;-0.50;99.90;;;;;;5068351;28;20410;-58
2023/01/29 08:26:02;;;;;;;17.17;9.13;;;-0.50;99.90;;;;;;5069218;28;20169;-56
2023/01/29 08:28:28;;;;;;;16.20;9.63;;;-0.50;99.90;;;;;;5065219;28;20194;-57
2023/01/29 08:30:54;;;;;;;21.27;11.87;;;-0.50;99.90;;;;;;5059774;28;20424;-55
2023/01/29 08:33:20;;;;;;;58.73;25.70;;;-0.50;99.90;;;;;;5028289;28;20339;-56
2023/01/29 08:35:50;;;;;;;79.33;29.90;;;-0.50;99.90;;;;;;5054068;28;20438;-54
2023/01/29 08:38:16;;;;;;;17.40;9.23;;;-0.60;99.90;;;;;;5068844;28;20573;-56
2023/01/29 08:40:42;;;;;;;15.57;9.47;;;-0.60;99.90;;;;;;5055043;28;20447;-57
2023/01/29 08:43:10;;;;;;;14.33;9.43;;;-0.60;99.90;;;;;;5067011;28;20415;-64
2023/01/29 08:45:39;;;;;;;17.07;10.40;;;-0.60;99.90;;;;;;5070125;28;20423;-57
2023/01/29 08:48:05;;;;;;;13.03;8.23;;;-0.60;99.90;;;;;;5061222;28;20423;-56
2023/01/29 08:50:33;;;;;;;12.80;8.23;;;-0.50;99.90;;;;;;5068210;28;20457;-57
2023/01/29 08:53:00;;;;;;;13.30;7.97;;;-0.50;99.90;;;;;;5049057;28;20440;-57
2023/01/29 08:55:26;;;;;;;13.53;8.10;;;-0.50;99.90;;;;;;5061511;28;20503;-56
2023/01/29 08:57:52;;;;;;;14.27;8.37;;;-0.50;99.90;;;;;;5061768;28;20467;-57
2023/01/29 09:00:18;;;;;;;15.97;8.13;;;-0.50;99.90;;;;;;5059502;28;20447;-57
2023/01/29 09:02:43;;;;;;;14.30;8.67;;;-0.50;99.90;;;;;;5055847;28;22278;-56
2023/01/29 09:05:09;;;;;;;13.60;8.33;;;-0.50;99.90;;;;;;5050663;28;20468;-56
2023/01/29 09:07:35;;;;;;;16.90;8.10;;;-0.50;99.90;;;;;;5058872;28;20189;-55
2023/01/29 09:10:01;;;;;;;16.10;9.10;;;-0.50;99.90;;;;;;5051302;28;20223;-57
2023/01/29 09:12:26;;;;;;;14.50;8.23;;;-0.50;99.90;;;;;;5048349;28;20209;-55
2023/01/29 09:14:52;;;;;;;16.03;9.13;;;-0.40;99.90;;;;;;5046698;28;20943;-54
2023/01/29 09:17:18;;;;;;;15.50;9.10;;;-0.40;99.90;;;;;;5044056;28;20201;-56
2023/01/29 09:19:43;;;;;;;19.30;10.30;;;-0.40;99.90;;;;;;5047047;28;20206;-54
2023/01/29 09:22:09;;;;;;;12.57;8.13;;;-0.40;99.90;;;;;;5043856;28;20580;-54
2023/01/29 09:24:35;;;;;;;13.70;8.40;;;-0.40;99.90;;;;;;5047960;28;20190;-54
2023/01/29 09:27:00;;;;;;;13.50;7.83;;;-0.40;99.90;;;;;;5046249;28;20834;-55
2023/01/29 09:29:26;;;;;;;14.93;8.73;;;-0.40;99.90;;;;;;5047227;28;20195;-55
2023/01/29 09:31:52;;;;;;;13.80;7.73;;;-0.40;99.90;;;;;;5024708;28;20831;-54
2023/01/29 09:34:17;;;;;;;12.53;7.80;;;-0.40;99.90;;;;;;5039391;28;20178;-55
2023/01/29 09:36:43;;;;;;;13.63;8.17;;;-0.40;99.90;;;;;;5048313;28;20322;-55
2023/01/29 09:39:09;;;;;;;14.30;8.40;;;-0.40;99.90;;;;;;5045080;28;20205;-55
2023/01/29 09:41:52;;;;;;;12.53;7.93;;;-0.40;99.90;;;;;;5061365;28;20318;-59
2023/01/29 09:44:42;;;;;;;12.33;7.93;;;-0.40;99.90;;;;;;5065986;28;20163;-57
2023/01/29 09:47:13;;;;;;;15.33;8.57;;;-0.40;99.90;;;;;;5046032;28;20554;-57
2023/01/29 09:49:44;;;;;;;15.80;7.67;;;-0.40;99.90;;;;;;5045222;28;20589;-55
2023/01/29 09:52:15;;;;;;;41.50;18.07;;;-0.40;99.90;;;;;;5044154;28;20971;-58
2023/01/29 09:55:02;;;;;;;13.63;6.90;;;-0.40;99.90;;;;;;5056460;28;20435;-57
2023/01/29 09:57:44;;;;;;;10.60;6.80;;;-0.40;99.90;;;;;;5057470;28;20559;-56
2023/01/29 10:00:34;;;;;;;9.77;6.03;;;-0.40;99.90;;;;;;5047692;28;20419;-56
2023/01/29 10:03:38;;;;;;;27.00;13.47;;;-0.30;99.90;;;;;;5045521;28;20629;-55
2023/01/29 10:06:22;;;;;;;34.87;15.10;;;-0.30;99.90;;;;;;5045763;28;20431;-56
2023/01/29 10:09:29;;;;;;;24.97;12.80;;;-0.30;99.90;;;;;;5031927;28;20419;-55
2023/01/29 10:12:13;;;;;;;21.00;10.67;;;-0.20;99.90;;;;;;5049716;28;20787;-56
2023/01/29 10:14:54;;;;;;;14.00;9.00;;;-0.20;99.90;;;;;;5045157;28;20461;-56
2023/01/29 10:17:43;;;;;;;13.30;7.73;;;-0.20;99.90;;;;;;5024722;28;20435;-56
2023/01/29 10:20:33;;;;;;;10.10;7.13;;;-0.20;99.90;;;;;;5045711;28;20440;-55
2023/01/29 10:23:17;;;;;;;8.93;6.57;;;-0.20;99.90;;;;;;5042710;28;20483;-55
2023/01/29 10:25:45;;;;;;;10.13;6.80;;;-0.20;99.90;;;;;;5047871;28;20504;-56
2023/01/29 10:28:17;;;;;;;12.00;7.70;;;-0.20;99.90;;;;;;5047170;28;20424;-57
2023/01/29 10:30:49;;;;;;;11.87;6.77;;;-0.20;99.90;;;;;;5051125;28;21155;-56
2023/01/29 10:33:25;;;;;;;9.03;6.60;;;-0.10;99.90;;;;;;5053202;28;20423;-61
2023/01/29 10:35:59;;;;;;;10.23;7.23;;;-0.10;99.90;;;;;;5064729;28;21442;-57
2023/01/29 10:38:24;;;;;;;12.73;7.43;;;-0.10;99.90;;;;;;5061560;28;20444;-56
2023/01/29 10:41:09;;;;;;;11.03;7.30;;;-0.10;99.90;;;;;;5068910;28;20447;-55
2023/01/29 10:43:37;;;;;;;13.80;7.80;;;0.00;99.90;;;;;;5049922;28;20174;-54
2023/01/29 10:46:03;;;;;;;12.10;7.57;;;0.00;99.90;;;;;;5030261;28;20436;-55
2023/01/29 10:48:46;;;;;;;11.67;8.03;;;0.00;99.90;;;;;;5044173;28;21071;-55
2023/01/29 10:51:28;;;;;;;10.03;7.50;;;0.00;99.90;;;;;;5045175;28;20229;-56
2023/01/29 10:54:09;;;;;;;10.60;7.00;;;0.00;99.90;;;;;;5051707;28;20422;-56
2023/01/29 10:56:40;;;;;;;12.03;7.67;;;0.00;99.90;;;;;;5050634;28;20431;-55
2023/01/29 10:59:29;;;;;;;12.73;7.90;;;0.00;99.90;;;;;;5046509;28;20530;-57
2023/01/29 11:01:59;;;;;;;11.23;7.53;;;0.10;99.90;;;;;;5028219;28;20555;-56
2023/01/29 11:04:27;;;;;;;12.07;7.30;;;0.10;99.90;;;;;;5045221;28;20424;-56
2023/01/29 11:06:52;;;;;;;12.90;7.90;;;0.10;99.90;;;;;;5043574;28;20428;-56
2023/01/29 11:09:31;;;;;;;11.27;7.30;;;0.00;99.90;;;;;;5044051;28;21383;-55
2023/01/29 11:12:01;;;;;;;12.90;7.23;;;0.10;99.90;;;;;;5041227;28;20540;-56
2023/01/29 11:14:51;;;;;;;12.83;7.60;;;0.10;99.90;;;;;;5055287;28;20443;-56
2023/01/29 11:17:20;;;;;;;10.93;7.00;;;0.20;99.90;;;;;;5035372;28;20633;-56
2023/01/29 11:19:47;;;;;;;14.90;7.80;;;0.30;99.90;;;;;;5058143;28;20460;-55
2023/01/29 11:22:20;;;;;;;14.20;7.53;;;0.30;99.90;;;;;;5052443;28;20635;-59
2023/01/29 11:25:06;;;;;;;10.63;7.60;;;0.20;99.90;;;;;;5043121;28;20447;-55
2023/01/29 11:27:34;;;;;;;14.40;8.63;;;0.10;99.90;;;;;;5041191;28;20438;-57
2023/01/29 11:30:00;;;;;;;15.07;9.50;;;0.10;99.90;;;;;;5038473;28;20447;-56
2023/01/29 11:32:31;;;;;;;15.33;8.03;;;0.20;99.90;;;;;;5040228;28;20456;-60
2023/01/29 11:35:15;;;;;;;19.57;11.40;;;0.20;99.90;;;;;;5037097;28;20541;-56
2023/01/29 11:37:43;;;;;;;18.47;10.53;;;0.20;99.90;;;;;;5040703;28;20799;-56
2023/01/29 11:40:18;;;;;;;12.87;8.60;;;0.20;99.90;;;;;;5026868;28;20823;-56
2023/01/29 11:42:47;;;;;;;27.90;11.60;;;0.20;99.90;;;;;;5039413;28;20444;-57
2023/01/29 11:45:19;;;;;;;13.60;8.20;;;0.20;99.90;;;;;;5040133;28;20432;-56
2023/01/29 11:47:53;;;;;;;12.30;7.53;;;0.30;99.90;;;;;;5022292;28;21021;-56
2023/01/29 11:50:22;;;;;;;11.77;7.23;;;0.30;99.90;;;;;;5042135;28;21035;-56
2023/01/29 11:52:47;;;;;;;12.47;8.13;;;0.30;99.90;;;;;;5049303;28;20447;-56
2023/01/29 11:55:23;;;;;;;14.00;8.77;;;0.30;99.90;;;;;;5045066;28;20449;-57
2023/01/29 11:58:02;;;;;;;13.83;8.77;;;0.30;99.90;;;;;;5046495;28;20613;-56
2023/01/29 12:00:32;;;;;;;11.77;7.60;;;0.40;99.90;;;;;;5037793;28;21017;-56
2023/01/29 12:03:34;;;;;;;18.10;10.27;;;0.40;99.90;;;;;;5040761;28;20450;-56
2023/01/29 12:06:11;;;;;;;14.87;9.40;;;0.50;99.90;;;;;;5045855;28;20974;-56
2023/01/29 12:08:38;;;;;;;15.97;9.37;;;0.50;99.90;;;;;;5046851;28;20405;-56
2023/01/29 12:11:13;;;;;;;14.40;9.23;;;0.60;99.90;;;;;;5046509;28;20444;-55
2023/01/29 12:13:42;;;;;;;12.77;8.20;;;0.60;99.90;;;;;;5043481;28;20427;-55
2023/01/29 12:16:24;;;;;;;15.20;8.77;;;0.70;99.90;;;;;;5040372;28;20952;-55
2023/01/29 12:19:13;;;;;;;13.33;8.23;;;0.70;99.90;;;;;;5044260;28;20481;-56
2023/01/29 12:21:45;;;;;;;12.00;8.10;;;0.70;99.90;;;;;;5042329;28;20451;-55
2023/01/29 12:24:19;;;;;;;14.57;9.37;;;0.80;99.90;;;;;;5045368;28;20516;-56
2023/01/29 12:26:52;;;;;;;13.00;8.73;;;0.80;99.90;;;;;;5041347;28;20427;-56
2023/01/29 12:29:41;;;;;;;13.27;8.30;;;0.90;99.90;;;;;;5042941;28;20441;-56
2023/01/29 12:32:21;;;;;;;15.03;8.87;;;1.00;99.90;;;;;;5041824;28;20809;-58
2023/01/29 12:35:14;;;;;;;13.90;8.33;;;1.00;99.90;;;;;;5049350;28;20596;-59
2023/01/29 12:37:45;;;;;;;13.00;8.80;;;1.00;99.90;;;;;;5043173;28;20480;-58
2023/01/29 12:40:13;;;;;;;14.90;9.13;;;1.00;98.20;;;;;;5056163;28;20448;-57
2023/01/29 12:42:42;;;;;;;12.43;8.10;;;1.00;98.00;;;;;;5057329;28;20484;-58
2023/01/29 12:45:09;;;;;;;15.17;8.63;;;1.00;96.60;;;;;;5040614;28;20441;-57
2023/01/29 12:47:44;;;;;;;15.30;8.63;;;1.00;97.40;;;;;;5044993;28;20436;-56
2023/01/29 12:50:27;;;;;;;12.50;8.07;;;0.90;97.70;;;;;;5041393;28;20432;-57
2023/01/29 12:52:58;;;;;;;10.03;7.40;;;0.90;97.90;;;;;;5065218;28;20453;-57
2023/01/29 12:55:37;;;;;;;13.70;8.33;;;0.80;97.40;;;;;;5040000;28;20425;-58
2023/01/29 12:58:15;;;;;;;13.73;7.23;;;0.80;97.20;;;;;;5072600;28;20463;-60
2023/01/29 13:00:47;;;;;;;12.73;8.70;;;0.70;97.20;;;;;;5043998;28;20446;-56
2023/01/29 13:03:16;;;;;;;12.83;8.60;;;0.70;97.60;;;;;;5039353;28;20466;-57
2023/01/29 13:05:58;;;;;;;15.13;9.77;;;0.60;98.10;;;;;;5039582;28;20428;-57
2023/01/29 13:08:34;;;;;;;11.07;8.10;;;0.60;98.50;;;;;;5044136;28;20439;-57
2023/01/29 13:11:07;;;;;;;14.23;8.47;;;0.50;99.10;;;;;;5045826;28;20515;-57
2023/01/29 13:13:58;;;;;;;13.00;9.00;;;0.50;99.90;;;;;;5035296;28;20441;-57
2023/01/29 13:16:35;;;;;;;17.90;10.23;;;0.60;99.90;;;;;;5054110;28;20435;-56
2023/01/29 13:19:20;;;;;;;14.17;9.53;;;0.60;99.90;;;;;;5059954;28;20502;-57
2023/01/29 13:21:46;;;;;;;13.10;8.33;;;0.60;99.10;;;;;;5055094;28;20428;-57
2023/01/29 13:24:17;;;;;;;17.17;9.83;;;0.60;99.70;;;;;;5070434;28;20472;-55
2023/01/29 13:26:47;;;;;;;15.60;9.27;;;0.60;99.90;;;;;;5062113;28;20446;-58
2023/01/29 13:29:23;;;;;;;17.93;10.00;;;0.60;99.90;;;;;;5062981;28;20439;-57
2023/01/29 13:31:51;;;;;;;19.20;10.70;;;0.60;99.40;;;;;;5052004;28;20459;-57
2023/01/29 13:34:24;;;;;;;14.83;8.60;;;0.60;99.40;;;;;;5048042;28;21043;-57
2023/01/29 13:36:53;;;;;;;14.00;8.87;;;0.60;99.90;;;;;;5045166;28;21044;-56